Time;durP1;ratioP1;P1;durP2;ratioP2;P2;SDS_P1;SDS_P2;PMS_P1;PMS_P2;Temp;Humidity;BMP_temperature;BMP_pressure;BME280_temperature;BME280_humidity;BME280_pressure;Samples;Min_cycle;Max_cycle;Signal;HPM_P1;HPM_P2
2023/01/07 00:01:43;;;;;;;21.88;6.32;;;;;;;;;;5055246;28;20041;-76
2023/01/07 00:04:11;;;;;;;16.77;6.20;;;;;;;;;;5033156;28;20037;-77
2023/01/07 00:06:39;;;;;;;20.92;6.45;;;;;;;;;;5037008;28;20030;-77
2023/01/07 00:09:06;;;;;;;20.00;7.03;;;;;;;;;;5035072;28;20463;-77
2023/01/07 00:11:33;;;;;;;17.92;8.00;;;;;;;;;;5016746;28;20021;-76
2023/01/07 00:14:00;;;;;;;25.60;8.85;;;;;;;;;;5033727;28;20068;-75
2023/01/07 00:16:27;;;;;;;18.88;8.63;;;;;;;;;;5033087;28;20057;-76
2023/01/07 00:18:54;;;;;;;25.35;8.57;;;;;;;;;;5033519;28;20040;-76
2023/01/07 00:21:21;;;;;;;28.60;11.07;;;;;;;;;;5033325;28;20470;-77
2023/01/07 00:23:47;;;;;;;20.80;9.90;;;;;;;;;;5033266;28;20099;-76
2023/01/07 00:26:13;;;;;;;22.15;10.77;;;;;;;;;;5033314;28;20063;-77
2023/01/07 00:28:40;;;;;;;34.38;11.85;;;;;;;;;;5016227;28;20060;-76
2023/01/07 00:31:07;;;;;;;24.75;12.35;;;;;;;;;;5033931;28;20045;-76
2023/01/07 00:33:34;;;;;;;28.13;13.02;;;;;;;;;;5034238;28;20026;-77
2023/01/07 00:36:00;;;;;;;30.65;13.77;;;;;;;;;;5035179;28;20025;-76
2023/01/07 00:38:26;;;;;;;30.08;14.57;;;;;;;;;;5015889;28;20048;-76
2023/01/07 00:40:52;;;;;;;31.42;14.10;;;;;;;;;;5016722;28;20367;-75
2023/01/07 00:43:18;;;;;;;28.50;14.25;;;;;;;;;;5034778;28;20108;-77
2023/01/07 00:45:44;;;;;;;31.60;15.55;;;;;;;;;;5035221;28;20075;-77
2023/01/07 00:48:10;;;;;;;40.33;16.60;;;;;;;;;;5034517;28;20025;-77
2023/01/07 00:50:36;;;;;;;35.83;16.63;;;;;;;;;;5033563;28;20087;-78
2023/01/07 00:53:02;;;;;;;35.10;16.65;;;;;;;;;;5033032;28;20026;-76
2023/01/07 00:55:29;;;;;;;36.70;17.80;;;;;;;;;;5032468;28;20104;-76
2023/01/07 00:57:55;;;;;;;47.05;20.15;;;;;;;;;;5032799;28;20038;-76
2023/01/07 01:00:22;;;;;;;36.50;17.92;;;;;;;;;;5033348;28;20044;-77
2023/01/07 01:02:48;;;;;;;39.88;19.45;;;;;;;;;;5033467;28;20455;-77
2023/01/07 01:05:14;;;;;;;40.20;19.30;;;;;;;;;;5032975;28;20026;-77
2023/01/07 01:07:41;;;;;;;41.03;19.58;;;;;;;;;;5033290;28;20068;-76
2023/01/07 01:10:08;;;;;;;41.03;21.25;;;;;;;;;;5033080;28;20017;-77
2023/01/07 01:12:34;;;;;;;41.22;21.05;;;;;;;;;;5035404;28;20077;-76
2023/01/07 01:15:01;;;;;;;44.28;20.58;;;;;;;;;;5033475;28;20398;-77
2023/01/07 01:17:27;;;;;;;42.72;20.88;;;;;;;;;;5032648;28;20110;-77
2023/01/07 01:19:53;;;;;;;37.03;21.45;;;;;;;;;;5032406;28;20060;-77
2023/01/07 01:22:19;;;;;;;44.03;22.38;;;;;;;;;;5032271;28;20026;-78
2023/01/07 01:24:45;;;;;;;52.50;24.40;;;;;;;;;;5099580;23;20040;-78
2023/01/07 01:27:11;;;;;;;39.72;21.25;;;;;;;;;;5089410;28;20070;-76
2023/01/07 01:29:37;;;;;;;37.83;21.77;;;;;;;;;;5104702;28;20485;-75
2023/01/07 01:32:03;;;;;;;40.80;23.35;;;;;;;;;;5092259;28;20029;-74
2023/01/07 01:34:29;;;;;;;42.88;23.17;;;;;;;;;;5074873;28;20031;-75
2023/01/07 01:36:55;;;;;;;46.80;24.42;;;;;;;;;;5073245;28;20024;-75
2023/01/07 01:39:21;;;;;;;41.83;22.00;;;;;;;;;;5073264;28;20029;-75
2023/01/07 01:41:47;;;;;;;40.85;23.40;;;;;;;;;;5072909;28;20115;-76
2023/01/07 01:44:31;;;;;;;44.67;22.92;;;;;;;;;;5073016;28;20052;-75
2023/01/07 01:46:57;;;;;;;52.92;25.13;;;;;;;;;;5072882;28;20031;-75
2023/01/07 01:49:26;;;;;;;43.50;24.55;;;;;;;;;;5073412;28;20126;-76
2023/01/07 01:51:55;;;;;;;52.38;26.30;;;;;;;;;;5074402;28;20059;-75
2023/01/07 01:54:21;;;;;;;44.88;25.08;;;;;;;;;;5080441;28;20028;-75
2023/01/07 01:56:49;;;;;;;51.83;26.13;;;;;;;;;;5073060;28;20374;-75
2023/01/07 01:59:21;;;;;;;47.47;25.50;;;;;;;;;;5096121;28;20036;-75
2023/01/07 02:01:47;;;;;;;56.47;27.23;;;;;;;;;;5080045;28;20034;-76
2023/01/07 02:04:16;;;;;;;50.80;27.60;;;;;;;;;;5091017;28;20089;-76
2023/01/07 02:06:44;;;;;;;51.13;27.80;;;;;;;;;;5076339;28;20035;-77
2023/01/07 02:09:13;;;;;;;49.25;26.02;;;;;;;;;;5076640;28;20025;-75
2023/01/07 02:11:51;;;;;;;50.58;27.42;;;;;;;;;;5076225;28;20021;-75
2023/01/07 02:14:20;;;;;;;47.92;27.83;;;;;;;;;;5092396;28;20025;-75
2023/01/07 02:16:52;;;;;;;48.78;26.13;;;;;;;;;;5076488;28;20033;-75
2023/01/07 02:19:37;;;;;;;46.20;26.05;;;;;;;;;;5092721;28;20039;-76
2023/01/07 02:22:17;;;;;;;46.75;27.70;;;;;;;;;;5076378;28;20105;-74
2023/01/07 02:24:49;;;;;;;43.80;25.15;;;;;;;;;;5091549;28;20033;-75
2023/01/07 02:27:18;;;;;;;51.97;28.52;;;;;;;;;;5091413;28;20028;-76
2023/01/07 02:29:53;;;;;;;50.90;26.80;;;;;;;;;;5076756;28;20025;-76
2023/01/07 02:32:25;;;;;;;55.60;27.08;;;;;;;;;;5092136;28;20217;-74
2023/01/07 02:35:04;;;;;;;48.20;26.02;;;;;;;;;;5092045;28;20023;-76
2023/01/07 02:37:49;;;;;;;50.83;27.27;;;;;;;;;;5092445;28;20031;-77
2023/01/07 02:40:27;;;;;;;43.53;25.27;;;;;;;;;;5077167;28;20417;-76
2023/01/07 02:43:16;;;;;;;49.65;28.33;;;;;;;;;;5077783;28;20043;-75
2023/01/07 02:45:46;;;;;;;48.15;27.27;;;;;;;;;;5071370;28;20040;-76
2023/01/07 02:48:13;;;;;;;53.38;29.15;;;;;;;;;;5076719;28;20035;-77
2023/01/07 02:50:39;;;;;;;52.30;30.17;;;;;;;;;;5077658;28;20025;-77
2023/01/07 02:53:07;;;;;;;61.83;32.45;;;;;;;;;;5059871;28;20104;-77
2023/01/07 02:55:48;;;;;;;59.20;33.65;;;;;;;;;;5056744;28;20122;-76
2023/01/07 02:58:24;;;;;;;60.88;35.00;;;;;;;;;;5063048;28;20056;-76
2023/01/07 03:00:57;;;;;;;61.33;37.42;;;;;;;;;;5069642;28;20033;-75
2023/01/07 03:03:29;;;;;;;67.15;39.58;;;;;;;;;;5069770;28;20044;-77
2023/01/07 03:06:20;;;;;;;71.28;40.58;;;;;;;;;;5068830;28;20108;-75
2023/01/07 03:09:06;;;;;;;64.65;38.60;;;;;;;;;;5071658;28;20025;-78
2023/01/07 03:11:38;;;;;;;70.88;41.95;;;;;;;;;;5073837;28;20017;-77
2023/01/07 03:14:09;;;;;;;73.57;42.95;;;;;;;;;;5070461;28;20040;-75
2023/01/07 03:16:39;;;;;;;73.05;43.88;;;;;;;;;;5061702;28;20085;-78
2023/01/07 03:19:25;;;;;;;72.82;42.63;;;;;;;;;;5060749;28;20024;-76
2023/01/07 03:21:52;;;;;;;66.57;41.22;;;;;;;;;;5057511;28;20102;-76
2023/01/07 03:24:18;;;;;;;83.53;45.00;;;;;;;;;;5063346;28;20033;-75
2023/01/07 03:26:46;;;;;;;77.38;43.00;;;;;;;;;;5068178;28;20020;-76
2023/01/07 03:29:14;;;;;;;79.13;44.50;;;;;;;;;;5076379;28;20021;-79
2023/01/07 03:31:43;;;;;;;76.22;44.15;;;;;;;;;;5072095;28;20031;-75
2023/01/07 03:34:11;;;;;;;73.95;42.47;;;;;;;;;;5061976;28;20025;-76
2023/01/07 03:36:42;;;;;;;76.45;44.90;;;;;;;;;;5053116;28;20394;-77
2023/01/07 03:39:10;;;;;;;78.13;44.83;;;;;;;;;;5054559;28;20469;-75
2023/01/07 03:44:23;;;;;;;79.50;45.95;;;;;;;;;;5063591;28;20035;-77
2023/01/07 03:46:50;;;;;;;75.72;45.83;;;;;;;;;;5056263;28;20055;-77
2023/01/07 03:49:16;;;;;;;74.00;44.97;;;;;;;;;;5055703;28;20017;-76
2023/01/07 03:51:42;;;;;;;71.68;43.75;;;;;;;;;;5055791;28;20393;-74
2023/01/07 03:54:08;;;;;;;73.15;45.25;;;;;;;;;;5056338;28;20475;-74
2023/01/07 03:56:34;;;;;;;71.72;43.83;;;;;;;;;;5055653;28;20091;-77
2023/01/07 03:59:00;;;;;;;71.47;44.63;;;;;;;;;;5056025;28;20035;-75
2023/01/07 04:01:26;;;;;;;73.20;44.15;;;;;;;;;;5054073;28;20083;-75
2023/01/07 04:03:52;;;;;;;74.63;44.60;;;;;;;;;;5054178;28;20517;-77
2023/01/07 04:06:18;;;;;;;72.45;45.33;;;;;;;;;;5054362;28;20036;-75
2023/01/07 04:08:44;;;;;;;73.72;45.63;;;;;;;;;;5054611;28;20115;-77
2023/01/07 04:11:10;;;;;;;76.60;45.70;;;;;;;;;;5055454;28;20028;-76
2023/01/07 04:13:36;;;;;;;76.85;44.80;;;;;;;;;;5055397;28;20116;-79
2023/01/07 04:16:02;;;;;;;76.00;45.38;;;;;;;;;;5053652;28;20059;-78
2023/01/07 04:18:28;;;;;;;76.85;44.67;;;;;;;;;;5055172;28;20040;-76
2023/01/07 04:20:54;;;;;;;77.63;45.70;;;;;;;;;;5054891;28;20040;-77
2023/01/07 04:23:20;;;;;;;74.15;44.67;;;;;;;;;;5054518;28;20065;-74
2023/01/07 04:25:46;;;;;;;73.85;44.40;;;;;;;;;;5053115;28;20029;-74
2023/01/07 04:28:12;;;;;;;76.20;42.80;;;;;;;;;;5053697;28;20122;-74
2023/01/07 04:30:38;;;;;;;71.07;43.42;;;;;;;;;;5053510;28;20032;-77
2023/01/07 04:33:05;;;;;;;73.10;44.85;;;;;;;;;;5054528;28;20464;-77
2023/01/07 04:35:31;;;;;;;68.93;42.33;;;;;;;;;;5054652;28;20390;-77
2023/01/07 04:37:58;;;;;;;71.25;43.35;;;;;;;;;;5055022;28;20389;-78
2023/01/07 04:40:24;;;;;;;70.43;42.45;;;;;;;;;;5055554;28;20386;-77
2023/01/07 04:42:50;;;;;;;77.03;44.70;;;;;;;;;;5056496;28;20052;-78
2023/01/07 04:45:16;;;;;;;74.25;44.53;;;;;;;;;;5056412;28;20025;-78
2023/01/07 04:47:42;;;;;;;74.85;45.63;;;;;;;;;;5053851;28;20025;-78
2023/01/07 04:50:08;;;;;;;72.40;43.58;;;;;;;;;;5055161;28;20056;-76
2023/01/07 04:52:34;;;;;;;71.72;43.33;;;;;;;;;;5060759;28;20071;-75
2023/01/07 04:55:00;;;;;;;70.40;42.80;;;;;;;;;;5056147;28;20021;-77
2023/01/07 04:57:26;;;;;;;70.95;43.83;;;;;;;;;;5054277;28;20035;-76
2023/01/07 04:59:52;;;;;;;70.35;44.22;;;;;;;;;;5052874;28;20075;-76
2023/01/07 05:02:18;;;;;;;65.22;41.92;;;;;;;;;;5056123;28;20032;-76
2023/01/07 05:04:44;;;;;;;71.80;41.78;;;;;;;;;;5070690;28;20072;-75
2023/01/07 05:07:10;;;;;;;63.13;41.35;;;;;;;;;;5072258;28;20059;-75
2023/01/07 05:09:36;;;;;;;64.20;41.17;;;;;;;;;;5084847;28;20021;-76
2023/01/07 05:12:02;;;;;;;68.25;41.78;;;;;;;;;;5084158;28;20020;-77
2023/01/07 05:14:27;;;;;;;64.30;39.72;;;;;;;;;;5073464;28;20067;-77
2023/01/07 05:16:53;;;;;;;61.42;40.63;;;;;;;;;;5073770;28;20458;-77
2023/01/07 05:19:20;;;;;;;63.63;41.30;;;;;;;;;;5076089;28;20565;-77
2023/01/07 05:21:46;;;;;;;66.38;42.45;;;;;;;;;;5077285;28;20020;-77
2023/01/07 05:24:12;;;;;;;68.97;40.47;;;;;;;;;;5078968;28;20392;-77
2023/01/07 05:26:38;;;;;;;60.92;40.38;;;;;;;;;;5071769;28;20124;-77
2023/01/07 05:29:04;;;;;;;59.28;38.92;;;;;;;;;;5074570;28;20047;-76
2023/01/07 05:31:30;;;;;;;59.88;37.95;;;;;;;;;;5079154;28;20477;-77
2023/01/07 05:33:56;;;;;;;62.38;39.75;;;;;;;;;;5082139;28;20048;-77
2023/01/07 05:36:22;;;;;;;61.95;40.33;;;;;;;;;;5073213;28;20024;-77
2023/01/07 05:38:48;;;;;;;60.42;39.67;;;;;;;;;;5081044;28;20028;-77
2023/01/07 05:41:14;;;;;;;63.13;41.35;;;;;;;;;;5078333;28;20063;-77
2023/01/07 05:43:40;;;;;;;64.03;41.03;;;;;;;;;;5076393;28;20132;-74
2023/01/07 05:46:06;;;;;;;61.58;41.97;;;;;;;;;;5077643;28;20064;-76
2023/01/07 05:48:32;;;;;;;63.00;40.95;;;;;;;;;;5077449;28;20079;-77
2023/01/07 05:50:58;;;;;;;61.33;40.97;;;;;;;;;;5075956;28;20016;-76
2023/01/07 05:53:24;;;;;;;66.80;42.05;;;;;;;;;;5077134;28;20119;-77
2023/01/07 05:55:55;;;;;;;62.85;41.40;;;;;;;;;;5075356;28;20477;-77
2023/01/07 05:58:21;;;;;;;61.75;40.90;;;;;;;;;;5076867;28;20069;-77
2023/01/07 06:00:47;;;;;;;61.53;41.50;;;;;;;;;;5076911;28;20031;-77
2023/01/07 06:03:13;;;;;;;59.67;40.90;;;;;;;;;;5077252;28;20025;-78
2023/01/07 06:05:38;;;;;;;58.03;40.90;;;;;;;;;;5081226;28;20016;-77
2023/01/07 06:08:05;;;;;;;59.58;39.85;;;;;;;;;;5096272;28;20044;-76
2023/01/07 06:10:31;;;;;;;60.95;40.83;;;;;;;;;;5080699;28;20048;-77
2023/01/07 06:12:57;;;;;;;56.40;39.13;;;;;;;;;;5077539;28;20477;-77
2023/01/07 06:15:23;;;;;;;59.38;39.72;;;;;;;;;;5076418;28;20032;-77
2023/01/07 06:17:49;;;;;;;57.70;39.08;;;;;;;;;;5075245;28;20020;-76
2023/01/07 06:20:15;;;;;;;56.53;38.80;;;;;;;;;;5075171;28;20017;-76
2023/01/07 06:22:42;;;;;;;56.92;39.55;;;;;;;;;;5074890;28;20039;-75
2023/01/07 06:25:08;;;;;;;61.53;39.63;;;;;;;;;;5076999;28;20028;-76
2023/01/07 06:27:34;;;;;;;61.63;39.75;;;;;;;;;;5075851;28;20029;-76
2023/01/07 06:30:00;;;;;;;55.20;39.20;;;;;;;;;;5084417;28;20024;-75
2023/01/07 06:32:26;;;;;;;58.97;40.92;;;;;;;;;;5088871;28;20044;-75
2023/01/07 06:34:52;;;;;;;57.08;39.45;;;;;;;;;;5079321;28;20066;-77
2023/01/07 06:37:18;;;;;;;54.83;38.67;;;;;;;;;;5078090;28;20104;-77
2023/01/07 06:39:44;;;;;;;55.75;38.75;;;;;;;;;;5075534;28;20059;-77
2023/01/07 06:42:10;;;;;;;59.95;38.90;;;;;;;;;;5082935;28;20063;-79
2023/01/07 06:44:35;;;;;;;56.10;38.92;;;;;;;;;;5080587;28;20024;-76
2023/01/07 06:47:01;;;;;;;58.80;39.95;;;;;;;;;;5076660;28;20031;-78
2023/01/07 06:49:27;;;;;;;56.65;39.17;;;;;;;;;;5077067;28;20698;-76
2023/01/07 06:51:53;;;;;;;51.67;38.25;;;;;;;;;;5077291;28;20024;-77
2023/01/07 06:54:19;;;;;;;54.83;38.15;;;;;;;;;;5078805;28;20028;-77
2023/01/07 06:56:45;;;;;;;52.47;38.67;;;;;;;;;;5079720;28;20027;-78
2023/01/07 06:59:11;;;;;;;52.00;37.47;;;;;;;;;;5076068;28;20439;-78
2023/01/07 07:01:37;;;;;;;55.80;39.22;;;;;;;;;;5075225;28;20106;-77
2023/01/07 07:04:03;;;;;;;53.25;37.40;;;;;;;;;;5077629;28;20119;-77
2023/01/07 07:06:29;;;;;;;55.53;39.05;;;;;;;;;;5077294;28;20056;-77
2023/01/07 07:08:55;;;;;;;50.92;37.85;;;;;;;;;;5081148;28;20020;-76
2023/01/07 07:11:21;;;;;;;52.65;38.03;;;;;;;;;;5077691;28;20024;-76
2023/01/07 07:13:47;;;;;;;50.65;36.58;;;;;;;;;;5077965;28;20028;-77
2023/01/07 07:16:13;;;;;;;52.15;38.30;;;;;;;;;;5076677;28;20493;-78
2023/01/07 07:18:39;;;;;;;51.65;39.42;;;;;;;;;;5079181;28;20482;-77
2023/01/07 07:21:05;;;;;;;56.15;39.67;;;;;;;;;;5083054;28;20044;-77
2023/01/07 07:23:31;;;;;;;52.95;39.42;;;;;;;;;;5097860;22;20092;-77
2023/01/07 07:25:57;;;;;;;49.88;37.15;;;;;;;;;;5016779;28;20045;-78
2023/01/07 07:28:23;;;;;;;51.42;38.42;;;;;;;;;;5016245;28;20037;-77
2023/01/07 07:30:49;;;;;;;52.17;38.38;;;;;;;;;;5017258;28;20076;-76
2023/01/07 07:33:17;;;;;;;51.97;37.42;;;;;;;;;;5017997;28;20640;-78
2023/01/07 07:35:44;;;;;;;53.05;38.95;;;;;;;;;;5019782;28;20025;-76
2023/01/07 07:38:10;;;;;;;56.80;38.30;;;;;;;;;;5028437;28;20410;-78
2023/01/07 07:40:36;;;;;;;51.38;38.17;;;;;;;;;;5037355;28;20078;-81
2023/01/07 07:43:02;;;;;;;51.92;39.33;;;;;;;;;;5035823;28;20018;-81
2023/01/07 07:45:28;;;;;;;51.15;37.95;;;;;;;;;;5036781;28;20057;-79
2023/01/07 07:47:54;;;;;;;54.00;38.75;;;;;;;;;;5038573;28;20033;-80
2023/01/07 07:50:19;;;;;;;58.28;39.63;;;;;;;;;;5009665;28;20033;-77
2023/01/07 07:52:45;;;;;;;54.20;39.05;;;;;;;;;;5015432;28;20026;-79
2023/01/07 07:55:11;;;;;;;48.90;37.50;;;;;;;;;;5015254;28;20021;-79
2023/01/07 07:57:37;;;;;;;50.13;38.15;;;;;;;;;;5015141;28;20104;-77
2023/01/07 08:00:04;;;;;;;52.38;40.42;;;;;;;;;;4998430;28;20436;-79
2023/01/07 08:02:30;;;;;;;48.22;35.53;;;;;;;;;;5014540;28;20061;-79
2023/01/07 08:04:56;;;;;;;51.88;37.80;;;;;;;;;;4998220;28;20026;-77
2023/01/07 08:07:22;;;;;;;55.85;39.70;;;;;;;;;;5015655;28;20041;-78
2023/01/07 08:09:48;;;;;;;49.72;38.05;;;;;;;;;;5015666;28;20076;-79
2023/01/07 08:12:13;;;;;;;54.30;38.72;;;;;;;;;;5014923;28;20061;-79
2023/01/07 08:14:39;;;;;;;48.65;38.42;;;;;;;;;;5016589;28;20034;-78
2023/01/07 08:17:05;;;;;;;51.75;37.85;;;;;;;;;;5014571;28;20025;-78
2023/01/07 08:19:31;;;;;;;50.03;37.72;;;;;;;;;;4998444;28;20041;-78
2023/01/07 08:21:57;;;;;;;49.38;38.53;;;;;;;;;;5016195;28;20507;-78
2023/01/07 08:24:23;;;;;;;50.28;36.85;;;;;;;;;;5014224;28;20057;-76
2023/01/07 08:26:54;;;;;;;51.28;38.42;;;;;;;;;;5014440;28;20108;-77
2023/01/07 08:29:20;;;;;;;47.15;36.75;;;;;;;;;;5014279;28;20068;-77
2023/01/07 08:31:46;;;;;;;52.10;38.25;;;;;;;;;;5013943;28;20026;-75
2023/01/07 08:34:11;;;;;;;51.00;37.58;;;;;;;;;;5014873;28;20091;-84
2023/01/07 08:36:38;;;;;;;50.78;38.45;;;;;;;;;;5015101;28;20072;-75
2023/01/07 08:39:04;;;;;;;51.97;37.90;;;;;;;;;;5014071;28;20041;-74
2023/01/07 08:41:30;;;;;;;47.50;37.25;;;;;;;;;;5014360;28;20030;-77
2023/01/07 08:43:56;;;;;;;50.92;37.50;;;;;;;;;;5014141;28;20479;-74
2023/01/07 08:46:23;;;;;;;52.28;36.55;;;;;;;;;;4995967;28;20133;-77
2023/01/07 08:48:49;;;;;;;52.53;37.33;;;;;;;;;;4997023;28;20045;-78
2023/01/07 08:51:15;;;;;;;51.50;36.53;;;;;;;;;;5028860;28;20479;-78
2023/01/07 08:53:41;;;;;;;48.08;36.47;;;;;;;;;;5027433;28;20034;-79
2023/01/07 08:56:07;;;;;;;47.97;34.88;;;;;;;;;;5009715;28;20104;-78
2023/01/07 08:58:33;;;;;;;46.42;33.45;;;;;;;;;;5022143;28;20078;-76
2023/01/07 09:01:04;;;;;;;41.65;32.28;;;;;;;;;;5020601;28;20475;-76
2023/01/07 09:03:30;;;;;;;44.15;33.20;;;;;;;;;;5023771;28;20080;-77
2023/01/07 09:05:56;;;;;;;42.95;31.52;;;;;;;;;;5022602;28;20029;-75
2023/01/07 09:08:22;;;;;;;41.53;30.60;;;;;;;;;;5019273;28;20029;-74
2023/01/07 09:10:48;;;;;;;38.58;29.80;;;;;;;;;;5015385;28;20037;-73
2023/01/07 09:13:14;;;;;;;41.13;28.67;;;;;;;;;;5017873;28;20075;-72
2023/01/07 09:15:40;;;;;;;37.85;27.98;;;;;;;;;;5015649;28;20385;-73
2023/01/07 09:18:06;;;;;;;35.42;26.77;;;;;;;;;;5013776;28;20474;-75
2023/01/07 09:20:32;;;;;;;34.67;25.42;;;;;;;;;;4997774;28;20026;-77
2023/01/07 09:22:58;;;;;;;39.97;26.35;;;;;;;;;;5015514;28;20482;-76
2023/01/07 09:25:24;;;;;;;30.73;22.35;;;;;;;;;;4996518;28;20060;-74
2023/01/07 09:27:50;;;;;;;29.67;21.50;;;;;;;;;;5014305;28;20076;-75
2023/01/07 09:30:16;;;;;;;30.25;22.48;;;;;;;;;;5013852;28;20029;-76
2023/01/07 09:32:42;;;;;;;31.52;21.40;;;;;;;;;;5012955;28;20022;-75
2023/01/07 09:35:09;;;;;;;28.35;19.42;;;;;;;;;;4996918;28;20083;-77
2023/01/07 09:37:35;;;;;;;29.50;18.50;;;;;;;;;;5014020;28;20034;-73
2023/01/07 09:40:01;;;;;;;22.15;17.30;;;;;;;;;;5015017;28;20440;-79
2023/01/07 09:42:33;;;;;;;23.75;16.38;;;;;;;;;;4996574;28;20109;-79
2023/01/07 09:45:11;;;;;;;20.30;14.48;;;;;;;;;;5015966;28;20021;-76
2023/01/07 09:47:37;;;;;;;22.63;14.93;;;;;;;;;;5016667;28;20028;-76
2023/01/07 09:50:16;;;;;;;18.88;13.80;;;;;;;;;;4998579;28;20022;-77
2023/01/07 09:52:45;;;;;;;20.70;13.18;;;;;;;;;;5014656;28;20037;-76
2023/01/07 09:55:17;;;;;;;19.90;11.75;;;;;;;;;;5018346;28;20060;-78
2023/01/07 09:57:42;;;;;;;15.93;11.55;;;;;;;;;;5032958;28;20041;-78
2023/01/07 10:00:17;;;;;;;15.32;10.75;;;;;;;;;;5019191;28;20014;-77
2023/01/07 10:03:01;;;;;;;12.57;9.80;;;;;;;;;;5036903;28;20018;-79
2023/01/07 10:05:30;;;;;;;12.73;9.40;;;;;;;;;;5029776;28;20224;-78
2023/01/07 10:08:05;;;;;;;10.15;8.25;;;;;;;;;;5020733;28;20034;-77
2023/01/07 10:10:50;;;;;;;10.60;8.00;;;;;;;;;;5015257;28;20026;-78
2023/01/07 10:13:35;;;;;;;12.38;7.35;;;;;;;;;;5017535;28;20049;-77
2023/01/07 10:16:05;;;;;;;11.00;6.68;;;;;;;;;;5023259;28;20041;-78
2023/01/07 10:18:42;;;;;;;10.10;6.40;;;;;;;;;;5017202;28;20034;-78
2023/01/07 10:21:22;;;;;;;11.73;6.50;;;;;;;;;;5016057;28;20092;-76
2023/01/07 10:23:52;;;;;;;14.05;6.05;;;;;;;;;;4998583;28;20080;-78
2023/01/07 10:26:25;;;;;;;16.30;5.85;;;;;;;;;;5021039;28;20049;-80
2023/01/07 10:28:55;;;;;;;6.47;5.22;;;;;;;;;;5018511;28;20034;-78
2023/01/07 10:31:23;;;;;;;9.98;4.88;;;;;;;;;;5017395;28;20030;-78
2023/01/07 10:33:50;;;;;;;6.28;4.63;;;;;;;;;;5036011;28;20095;-77
2023/01/07 10:36:24;;;;;;;7.85;4.32;;;;;;;;;;5040668;28;20025;-78
2023/01/07 10:38:50;;;;;;;;;;;;;;;;;;5037069;28;20029;-81
2023/01/07 10:41:21;;;;;;;5.28;3.75;;;;;;;;;;5039018;28;19913;-78
2023/01/07 10:43:47;;;;;;;7.63;4.15;;;;;;;;;;5039156;28;20478;-77
2023/01/07 10:46:32;;;;;;;5.88;3.78;;;;;;;;;;5042164;28;20056;-77
2023/01/07 10:49:04;;;;;;;8.30;3.70;;;;;;;;;;5019590;28;20025;-76
2023/01/07 10:51:45;;;;;;;10.57;4.00;;;;;;;;;;5035345;28;20021;-79
2023/01/07 10:54:30;;;;;;;6.50;3.42;;;;;;;;;;5037071;28;20025;-76
2023/01/07 10:57:05;;;;;;;9.70;4.03;;;;;;;;;;5035921;28;20044;-77
2023/01/07 10:59:31;;;;;;;5.40;3.85;;;;;;;;;;5019510;28;20071;-77
2023/01/07 11:01:58;;;;;;;8.35;4.93;;;;;;;;;;5038629;28;20025;-79
2023/01/07 11:04:25;;;;;;;4.57;3.33;;;;;;;;;;5035871;28;20040;-77
2023/01/07 11:07:08;;;;;;;4.15;3.03;;;;;;;;;;5037353;28;20086;-78
2023/01/07 11:09:35;;;;;;;6.07;3.38;;;;;;;;;;5037109;28;20022;-78
2023/01/07 11:12:06;;;;;;;5.78;2.92;;;;;;;;;;5018253;28;20026;-77
2023/01/07 11:14:33;;;;;;;6.47;3.20;;;;;;;;;;5035635;28;20060;-79
2023/01/07 11:17:08;;;;;;;5.40;2.95;;;;;;;;;;5035637;28;20038;-77
2023/01/07 11:19:34;;;;;;;;;;;;;;;;;;5035944;28;20025;-78
2023/01/07 11:22:00;;;;;;;11.73;2.58;;;;;;;;;;5036632;28;20308;-76
2023/01/07 11:24:33;;;;;;;5.53;2.40;;;;;;;;;;5036552;28;20152;-78
2023/01/07 11:27:04;;;;;;;3.83;2.67;;;;;;;;;;5019452;28;20029;-76
2023/01/07 11:29:34;;;;;;;5.22;2.60;;;;;;;;;;5019091;28;20025;-77
2023/01/07 11:32:04;;;;;;;7.55;2.20;;;;;;;;;;5015642;28;20077;-77
2023/01/07 11:34:39;;;;;;;4.32;2.60;;;;;;;;;;5019471;28;20013;-77
2023/01/07 11:37:05;;;;;;;;;;;;;;;;;;5019396;28;20435;-77
2023/01/07 11:39:33;;;;;;;3.50;2.00;;;;;;;;;;5006844;28;19905;-77
2023/01/07 11:44:47;;;;;;;5.35;2.38;;;;;;;;;;5016525;28;20072;-77
2023/01/07 11:47:15;;;;;;;3.60;1.90;;;;;;;;;;5018983;28;20018;-77
2023/01/07 11:49:43;;;;;;;7.82;2.78;;;;;;;;;;5020111;28;20451;-78
2023/01/07 11:52:17;;;;;;;3.10;2.10;;;;;;;;;;5017767;28;20521;-77
2023/01/07 11:54:48;;;;;;;5.22;2.03;;;;;;;;;;5002572;28;20106;-78
2023/01/07 11:57:24;;;;;;;5.63;2.53;;;;;;;;;;5014860;28;20061;-78
2023/01/07 12:00:10;;;;;;;4.43;1.92;;;;;;;;;;5026845;28;20029;-77
2023/01/07 12:02:36;;;;;;;4.20;1.95;;;;;;;;;;5021893;28;20451;-77
2023/01/07 12:05:16;;;;;;;3.70;2.08;;;;;;;;;;5019732;28;20021;-80
2023/01/07 12:07:46;;;;;;;5.82;3.65;;;;;;;;;;5020105;28;20401;-77
2023/01/07 12:10:25;;;;;;;4.47;2.70;;;;;;;;;;5030442;28;20049;-80
2023/01/07 12:12:51;;;;;;;6.63;2.25;;;;;;;;;;5045090;28;20056;-79
2023/01/07 12:15:18;;;;;;;6.38;2.90;;;;;;;;;;5056499;28;20009;-78
2023/01/07 12:17:50;;;;;;;3.83;2.25;;;;;;;;;;5055156;28;20034;-76
2023/01/07 12:20:31;;;;;;;3.33;2.35;;;;;;;;;;5050199;28;20030;-78
2023/01/07 12:23:09;;;;;;;5.30;3.03;;;;;;;;;;5055668;28;20025;-80
2023/01/07 12:25:38;;;;;;;3.88;1.88;;;;;;;;;;5047484;28;20034;-80
2023/01/07 12:28:10;;;;;;;3.08;1.75;;;;;;;;;;5047831;28;20032;-80
2023/01/07 12:30:53;;;;;;;8.68;1.95;;;;;;;;;;5049849;28;20021;-80
2023/01/07 12:33:37;;;;;;;3.67;1.80;;;;;;;;;;5040455;28;20029;-77
2023/01/07 12:36:13;;;;;;;2.63;1.70;;;;;;;;;;5031731;28;20029;-79
2023/01/07 12:38:45;;;;;;;4.38;2.00;;;;;;;;;;5055265;28;20009;-77
2023/01/07 12:41:18;;;;;;;5.50;1.80;;;;;;;;;;5056639;28;20052;-79
2023/01/07 12:44:03;;;;;;;5.78;1.80;;;;;;;;;;5038054;28;20018;-77
2023/01/07 12:46:32;;;;;;;2.75;1.80;;;;;;;;;;5046381;28;20033;-76
2023/01/07 12:48:58;;;;;;;2.70;1.80;;;;;;;;;;5046458;28;20056;-78
2023/01/07 12:51:26;;;;;;;2.53;1.35;;;;;;;;;;5051478;28;20025;-78
2023/01/07 12:53:58;;;;;;;1.83;1.58;;;;;;;;;;5038767;28;20026;-77
2023/01/07 12:56:27;;;;;;;3.80;1.67;;;;;;;;;;5040666;28;20080;-78
2023/01/07 12:59:01;;;;;;;10.32;3.83;;;;;;;;;;5045771;28;20040;-77
2023/01/07 13:01:36;;;;;;;2.53;1.52;;;;;;;;;;5044330;28;20058;-80
2023/01/07 13:04:08;;;;;;;1.58;1.30;;;;;;;;;;5051610;28;20037;-78
2023/01/07 13:06:52;;;;;;;2.50;1.60;;;;;;;;;;5045363;28;20034;-78
2023/01/07 13:09:32;;;;;;;3.08;1.70;;;;;;;;;;5046978;28;20056;-79
2023/01/07 13:14:45;;;;;;;4.22;1.80;;;;;;;;;;5037887;28;20056;-77
2023/01/07 13:17:21;;;;;;;3.65;1.55;;;;;;;;;;5036241;28;20021;-78
2023/01/07 13:19:47;;;;;;;3.00;1.65;;;;;;;;;;5038607;28;20028;-78
2023/01/07 13:22:15;;;;;;;4.60;2.10;;;;;;;;;;5039142;28;20072;-77
2023/01/07 13:24:47;;;;;;;3.85;1.70;;;;;;;;;;5041293;28;20037;-76
2023/01/07 13:27:19;;;;;;;17.30;5.30;;;;;;;;;;5038171;28;20131;-77
2023/01/07 13:29:59;;;;;;;2.47;1.90;;;;;;;;;;5038399;28;20025;-75
2023/01/07 13:32:25;;;;;;;6.53;2.22;;;;;;;;;;5035008;28;20028;-76
2023/01/07 13:35:03;;;;;;;7.20;1.67;;;;;;;;;;5037002;28;20026;-79
2023/01/07 13:37:35;;;;;;;2.42;1.80;;;;;;;;;;5035653;28;20478;-77
2023/01/07 13:40:03;;;;;;;2.03;1.60;;;;;;;;;;5033206;28;20446;-77
2023/01/07 13:42:43;;;;;;;2.63;1.70;;;;;;;;;;5033796;28;20033;-76
2023/01/07 13:45:12;;;;;;;3.13;1.73;;;;;;;;;;5032053;28;20564;-76
2023/01/07 13:47:38;;;;;;;3.55;1.70;;;;;;;;;;5033817;28;20029;-77
2023/01/07 13:50:04;;;;;;;3.53;1.98;;;;;;;;;;5014823;28;20114;-75
2023/01/07 13:52:32;;;;;;;4.45;2.20;;;;;;;;;;5015819;28;20022;-76
2023/01/07 13:54:59;;;;;;;3.85;2.20;;;;;;;;;;5032909;28;20033;-76
2023/01/07 13:57:31;;;;;;;4.45;1.80;;;;;;;;;;5032799;28;20029;-76
2023/01/07 14:00:01;;;;;;;6.68;2.33;;;;;;;;;;5036306;28;20057;-75
2023/01/07 14:02:28;;;;;;;7.18;2.00;;;;;;;;;;5019127;28;20087;-75
2023/01/07 14:05:06;;;;;;;3.92;2.05;;;;;;;;;;5036821;28;20104;-76
2023/01/07 14:07:42;;;;;;;3.42;2.00;;;;;;;;;;5037686;28;20025;-75
2023/01/07 14:10:17;;;;;;;7.07;2.63;;;;;;;;;;5038616;28;20030;-78
2023/01/07 14:12:49;;;;;;;4.95;2.40;;;;;;;;;;5037568;28;20025;-77
2023/01/07 14:15:21;;;;;;;6.50;3.05;;;;;;;;;;5035779;28;20072;-76
2023/01/07 14:18:13;;;;;;;7.30;2.80;;;;;;;;;;5035935;28;20110;-76
2023/01/07 14:20:47;;;;;;;7.90;2.83;;;;;;;;;;5005502;28;20029;-75
2023/01/07 14:23:15;;;;;;;7.35;2.97;;;;;;;;;;5035856;28;20052;-76
2023/01/07 14:26:00;;;;;;;9.77;5.68;;;;;;;;;;5036260;28;20065;-76
2023/01/07 14:28:45;;;;;;;17.75;5.75;;;;;;;;;;5037735;28;20021;-76
2023/01/07 14:31:24;;;;;;;5.90;2.97;;;;;;;;;;5057169;28;20021;-78
2023/01/07 14:33:52;;;;;;;9.10;4.07;;;;;;;;;;5059569;28;20021;-78
2023/01/07 14:36:18;;;;;;;5.13;2.45;;;;;;;;;;5055926;28;20115;-77
2023/01/07 14:38:45;;;;;;;3.53;2.20;;;;;;;;;;5060089;28;20030;-78
2023/01/07 14:41:12;;;;;;;3.47;2.00;;;;;;;;;;5052464;28;20025;-76
2023/01/07 14:43:47;;;;;;;4.32;2.40;;;;;;;;;;5038761;28;20057;-77
2023/01/07 14:46:22;;;;;;;5.43;2.53;;;;;;;;;;5039234;28;20037;-75